createdAt,value
2018-02-20T00:00:16.457Z,0.00
2018-02-20T00:01:16.442Z,0.00
2018-02-20T00:02:16.434Z,0.00
2018-02-20T00:03:16.424Z,0.00
2018-02-20T00:04:16.458Z,0.00
2018-02-20T00:05:16.406Z,0.00
2018-02-20T00:06:16.398Z,0.00
2018-02-20T00:07:16.386Z,0.00
2018-02-20T00:08:16.378Z,0.00
2018-02-20T00:09:16.409Z,0.00
2018-02-20T00:10:16.361Z,0.00
2018-02-20T00:11:16.351Z,0.00
2018-02-20T00:12:16.340Z,0.00
2018-02-20T00:13:16.390Z,0.00
2018-02-20T00:14:16.322Z,0.00
2018-02-20T00:15:16.310Z,0.00
2018-02-20T00:16:16.302Z,0.00
2018-02-20T00:17:16.333Z,0.00
2018-02-20T00:18:16.283Z,0.00
2018-02-20T00:19:16.319Z,0.00
2018-02-20T00:20:16.268Z,0.00
2018-02-20T00:21:16.257Z,0.00
2018-02-20T00:22:16.248Z,0.00
2018-02-20T00:23:16.238Z,0.00
2018-02-20T00:24:16.268Z,0.00
2018-02-20T00:25:16.234Z,0.00
2018-02-20T00:26:16.208Z,0.00
2018-02-20T00:27:16.199Z,0.00
2018-02-20T00:28:16.245Z,0.00
2018-02-20T00:29:16.181Z,0.00
2018-02-20T00:30:16.175Z,0.00
2018-02-20T00:31:16.161Z,0.00
2018-02-20T00:32:16.190Z,0.00
2018-02-20T00:33:16.146Z,0.00
2018-02-20T00:34:16.176Z,0.00
2018-02-20T00:35:16.122Z,0.00
2018-02-20T00:36:16.116Z,0.00
2018-02-20T00:37:16.107Z,0.00
2018-02-20T00:38:16.130Z,0.00
2018-02-20T00:39:16.086Z,0.00
2018-02-20T00:40:16.077Z,0.00
2018-02-20T00:41:16.067Z,0.00
2018-02-20T00:42:16.056Z,0.00
2018-02-20T00:43:16.088Z,0.00
2018-02-20T00:44:16.038Z,0.00
2018-02-20T00:45:16.028Z,0.00
2018-02-20T00:46:16.018Z,0.00
2018-02-20T00:47:16.008Z,0.00
2018-02-20T00:48:16.041Z,0.00
2018-02-20T00:49:15.986Z,0.00
2018-02-20T00:50:15.978Z,0.00
2018-02-20T00:51:15.968Z,0.00
2018-02-20T00:52:15.964Z,0.00
2018-02-20T00:53:15.990Z,0.00
2018-02-20T00:54:15.941Z,0.00
2018-02-20T00:55:15.930Z,0.00
2018-02-20T00:56:15.921Z,0.00
2018-02-20T00:57:15.912Z,0.00
2018-02-20T00:58:15.939Z,0.00
2018-02-20T00:59:15.889Z,0.00
2018-02-20T01:00:15.881Z,0.00
2018-02-20T01:01:15.872Z,0.00
2018-02-20T01:02:15.862Z,0.00
2018-02-20T01:03:15.908Z,0.00
2018-02-20T01:04:15.842Z,0.00
2018-02-20T01:05:15.836Z,0.00
2018-02-20T01:06:15.820Z,0.00
2018-02-20T01:07:15.851Z,0.00
2018-02-20T01:08:15.838Z,0.00
2018-02-20T01:09:15.794Z,0.00
2018-02-20T01:10:15.783Z,0.00
2018-02-20T01:11:15.777Z,0.00
2018-02-20T01:12:15.765Z,0.00
2018-02-20T01:13:15.794Z,0.00
2018-02-20T01:14:15.742Z,0.00
2018-02-20T01:15:15.734Z,0.00
2018-02-20T01:16:15.721Z,0.00
2018-02-20T01:17:15.712Z,0.00
2018-02-20T01:18:15.765Z,0.00
2018-02-20T01:19:15.696Z,0.00
2018-02-20T01:20:15.684Z,0.00
2018-02-20T01:21:15.674Z,0.00
2018-02-20T01:22:15.708Z,0.00
2018-02-20T01:23:15.699Z,0.00
2018-02-20T01:24:15.644Z,0.00
2018-02-20T01:25:15.632Z,0.00
2018-02-20T01:26:15.624Z,0.00
2018-02-20T01:27:15.612Z,0.00
2018-02-20T01:28:15.649Z,0.00
2018-02-20T01:29:15.596Z,0.00
2018-02-20T01:30:15.585Z,0.00
2018-02-20T01:31:15.575Z,0.00
2018-02-20T01:32:15.564Z,0.00
2018-02-20T01:33:15.605Z,0.00
2018-02-20T01:34:15.545Z,0.00
2018-02-20T01:35:15.532Z,0.00
2018-02-20T01:36:15.526Z,0.00
2018-02-20T01:37:15.516Z,0.00
2018-02-20T01:38:15.506Z,0.00
2018-02-20T01:39:15.535Z,0.00
2018-02-20T01:40:15.483Z,0.00
2018-02-20T01:41:15.475Z,0.00
2018-02-20T01:42:15.466Z,0.00
2018-02-20T01:43:15.496Z,0.00
2018-02-20T01:44:15.450Z,0.00
2018-02-20T01:45:15.434Z,0.00
2018-02-20T01:46:15.426Z,0.00
2018-02-20T01:47:15.415Z,0.00
2018-02-20T01:48:15.464Z,0.00
2018-02-20T01:49:15.395Z,0.00
2018-02-20T01:50:15.390Z,0.00
2018-02-20T01:51:15.374Z,0.00
2018-02-20T01:52:15.406Z,0.00
2018-02-20T01:53:15.356Z,0.00
2018-02-20T01:54:15.388Z,0.00
2018-02-20T01:55:15.337Z,0.00
2018-02-20T01:56:15.330Z,0.00
2018-02-20T01:57:15.314Z,0.00
2018-02-20T01:58:15.310Z,0.00
2018-02-20T01:59:15.333Z,0.00
2018-02-20T02:00:15.290Z,0.00
2018-02-20T02:01:15.277Z,0.00
2018-02-20T02:02:15.269Z,0.00
2018-02-20T02:03:15.258Z,0.00
2018-02-20T02:04:15.284Z,0.00
2018-02-20T02:05:15.240Z,0.00
2018-02-20T02:06:15.229Z,0.00
2018-02-20T02:07:15.217Z,0.00
2018-02-20T02:08:15.206Z,0.00
2018-02-20T02:09:15.256Z,0.00
2018-02-20T02:10:15.187Z,0.00
2018-02-20T02:11:15.176Z,0.00
2018-02-20T02:12:15.210Z,0.00
2018-02-20T02:13:15.155Z,0.00
2018-02-20T02:14:15.148Z,0.00
2018-02-20T02:15:15.177Z,0.00
2018-02-20T02:16:15.130Z,0.00
2018-02-20T02:17:15.117Z,0.00
2018-02-20T02:18:15.105Z,0.00
2018-02-20T02:19:15.530Z,0.00
2018-02-20T02:20:15.140Z,0.00
2018-02-20T02:21:15.079Z,0.00
2018-02-20T02:22:15.110Z,0.00
2018-02-20T02:23:15.055Z,0.00
2018-02-20T02:24:15.046Z,0.00
2018-02-20T02:25:15.074Z,0.00
2018-02-20T02:26:15.026Z,0.00
2018-02-20T02:27:15.017Z,0.00
2018-02-20T02:28:15.008Z,0.00
2018-02-20T02:29:14.992Z,0.00
2018-02-20T02:30:15.023Z,0.00
2018-02-20T02:31:14.978Z,0.00
2018-02-20T02:32:14.965Z,0.00
2018-02-20T02:33:14.953Z,0.00
2018-02-20T02:34:14.945Z,0.00
2018-02-20T02:35:14.970Z,0.00
2018-02-20T02:36:14.923Z,0.00
2018-02-20T02:37:14.915Z,0.00
2018-02-20T02:38:14.903Z,0.00
2018-02-20T02:39:14.932Z,0.00
2018-02-20T02:40:14.881Z,0.00
2018-02-20T02:41:14.871Z,0.00
2018-02-20T02:42:14.864Z,0.00
2018-02-20T02:43:14.850Z,0.00
2018-02-20T02:44:14.885Z,0.00
2018-02-20T02:45:14.831Z,0.00
2018-02-20T02:46:14.824Z,0.00
2018-02-20T02:47:14.810Z,0.00
2018-02-20T02:48:14.806Z,0.00
2018-02-20T02:49:14.828Z,0.00
2018-02-20T02:50:14.781Z,0.00
2018-02-20T02:51:14.768Z,0.00
2018-02-20T02:52:14.762Z,0.00
2018-02-20T02:53:14.748Z,0.00
2018-02-20T02:54:14.777Z,0.00
2018-02-20T02:55:14.733Z,0.00
2018-02-20T02:56:14.715Z,0.00
2018-02-20T02:57:14.710Z,0.00
2018-02-20T02:58:14.700Z,0.00
2018-02-20T02:59:14.724Z,0.00
2018-02-20T03:00:14.680Z,0.00
2018-02-20T03:01:14.667Z,0.00
2018-02-20T03:02:14.655Z,0.00
2018-02-20T03:03:14.663Z,0.00
2018-02-20T03:04:14.699Z,0.00
2018-02-20T03:05:14.625Z,0.00
2018-02-20T03:06:14.616Z,0.00
2018-02-20T03:07:14.690Z,0.00
2018-02-20T03:08:14.598Z,0.00
2018-02-20T03:09:14.620Z,0.00
2018-02-20T03:10:14.572Z,0.00
2018-02-20T03:11:14.563Z,0.00
2018-02-20T03:12:14.554Z,0.00
2018-02-20T03:13:14.545Z,0.00
2018-02-20T03:14:14.572Z,0.00
2018-02-20T03:15:14.522Z,0.00
2018-02-20T03:16:14.513Z,0.00
2018-02-20T03:17:14.501Z,0.00
2018-02-20T03:18:14.491Z,0.00
2018-02-20T03:19:15.344Z,0.00
2018-02-20T03:20:14.429Z,0.00
2018-02-20T03:21:14.455Z,0.00
2018-02-20T03:22:14.451Z,0.00
2018-02-20T03:23:14.438Z,0.00
2018-02-20T03:24:35.443Z,0.00
2018-02-20T03:25:14.416Z,0.00
2018-02-20T03:26:14.412Z,0.00
2018-02-20T03:27:14.400Z,0.00
2018-02-20T03:28:14.394Z,0.00
2018-02-20T03:29:14.422Z,0.00
2018-02-20T03:30:14.380Z,0.00
2018-02-20T03:31:14.358Z,0.00
2018-02-20T03:32:14.347Z,0.00
2018-02-20T03:33:14.336Z,0.00
2018-02-20T03:34:14.384Z,0.00
2018-02-20T03:35:14.316Z,0.00
2018-02-20T03:36:14.305Z,0.00
2018-02-20T03:37:14.354Z,0.00
2018-02-20T03:38:14.285Z,0.00
2018-02-20T03:39:14.274Z,0.00
2018-02-20T03:40:14.265Z,0.00
2018-02-20T03:41:14.255Z,0.00
2018-02-20T03:42:14.281Z,0.00
2018-02-20T03:43:14.242Z,0.00
2018-02-20T03:44:14.223Z,0.00
2018-02-20T03:45:14.272Z,0.00
2018-02-20T03:46:14.201Z,0.00
2018-02-20T03:47:14.235Z,0.00
2018-02-20T03:48:14.185Z,0.00
2018-02-20T03:49:14.173Z,0.00
2018-02-20T03:50:14.200Z,0.00
2018-02-20T03:51:14.149Z,0.00
2018-02-20T03:52:14.679Z,0.00
2018-02-20T03:53:14.134Z,0.00
2018-02-20T03:54:14.123Z,0.00
2018-02-20T03:55:14.147Z,0.00
2018-02-20T03:56:14.097Z,0.00
2018-02-20T03:57:14.094Z,0.00
2018-02-20T03:58:14.079Z,0.00
2018-02-20T03:59:14.064Z,0.00
2018-02-20T04:00:14.080Z,0.00
2018-02-20T04:01:14.105Z,0.00
2018-02-20T04:02:14.064Z,0.00
2018-02-20T04:03:14.044Z,0.00
2018-02-20T04:04:14.039Z,0.00
2018-02-20T04:05:14.080Z,0.00
2018-02-20T04:06:14.017Z,0.00
2018-02-20T04:07:14.008Z,0.00
2018-02-20T04:08:13.995Z,0.00
2018-02-20T04:09:13.987Z,0.00
2018-02-20T04:10:13.974Z,0.00
2018-02-20T04:11:13.998Z,0.00
2018-02-20T04:12:13.953Z,0.00
2018-02-20T04:13:13.941Z,0.00
2018-02-20T04:14:13.933Z,0.00
2018-02-20T04:15:13.974Z,0.00
2018-02-20T04:16:13.915Z,0.00
2018-02-20T04:17:13.901Z,0.00
2018-02-20T04:18:13.888Z,0.00
2018-02-20T04:19:13.876Z,0.00
2018-02-20T04:20:13.876Z,0.00
2018-02-20T04:21:13.898Z,0.00
2018-02-20T04:22:13.847Z,0.00
2018-02-20T04:23:13.837Z,0.00
2018-02-20T04:24:13.825Z,0.00
2018-02-20T04:25:13.863Z,0.00
2018-02-20T04:26:13.806Z,0.00
2018-02-20T04:27:13.799Z,0.00
2018-02-20T04:28:13.783Z,0.00
2018-02-20T04:29:13.774Z,0.00
2018-02-20T04:30:13.822Z,0.00
2018-02-20T04:31:13.792Z,0.00
2018-02-20T04:32:13.741Z,0.00
2018-02-20T04:33:13.731Z,0.00
2018-02-20T04:34:13.721Z,0.00
2018-02-20T04:35:13.711Z,0.00
2018-02-20T04:36:13.738Z,0.00
2018-02-20T04:37:13.689Z,0.00
2018-02-20T04:38:13.678Z,0.00
2018-02-20T04:39:13.667Z,0.00
2018-02-20T04:40:13.656Z,0.00
2018-02-20T04:41:13.722Z,0.00
2018-02-20T04:42:13.636Z,0.00
2018-02-20T04:43:13.672Z,0.00
2018-02-20T04:44:13.633Z,0.00
2018-02-20T04:45:13.604Z,0.00
2018-02-20T04:46:13.594Z,0.00
2018-02-20T04:47:13.626Z,0.00
2018-02-20T04:48:13.569Z,0.00
2018-02-20T04:49:13.564Z,0.00
2018-02-20T04:50:13.549Z,0.00
2018-02-20T04:51:13.539Z,0.00
2018-02-20T04:52:13.566Z,0.00
2018-02-20T04:53:13.519Z,0.00
2018-02-20T04:54:13.507Z,0.00
2018-02-20T04:55:13.496Z,0.00
2018-02-20T04:56:13.485Z,0.00
2018-02-20T04:57:13.521Z,0.00
2018-02-20T04:58:13.467Z,0.00
2018-02-20T04:59:13.455Z,0.00
2018-02-20T05:00:13.444Z,0.00
2018-02-20T05:01:13.434Z,0.00
2018-02-20T05:02:13.461Z,0.00
2018-02-20T05:03:13.410Z,0.00
2018-02-20T05:04:13.399Z,0.00
2018-02-20T05:05:13.389Z,0.00
2018-02-20T05:06:13.377Z,0.00
2018-02-20T05:07:13.407Z,0.00
2018-02-20T05:08:13.359Z,0.00
2018-02-20T05:09:13.345Z,0.00
2018-02-20T05:10:13.359Z,0.00
2018-02-20T05:11:13.331Z,0.00
2018-02-20T05:12:13.358Z,0.00
2018-02-20T05:13:13.304Z,0.00
2018-02-20T05:14:13.295Z,0.00
2018-02-20T05:15:13.283Z,0.00
2018-02-20T05:16:13.270Z,0.00
2018-02-20T05:17:13.305Z,0.00
2018-02-20T05:18:13.249Z,0.00
2018-02-20T05:19:13.241Z,0.00
2018-02-20T05:20:13.232Z,0.00
2018-02-20T05:21:13.218Z,0.00
2018-02-20T05:22:13.244Z,0.00
2018-02-20T05:23:13.197Z,0.00
2018-02-20T05:24:13.186Z,0.00
2018-02-20T05:25:13.178Z,0.00
2018-02-20T05:26:13.163Z,0.00
2018-02-20T05:27:13.190Z,0.00
2018-02-20T05:28:13.144Z,0.00
2018-02-20T05:29:13.140Z,0.00
2018-02-20T05:30:13.119Z,0.00
2018-02-20T05:31:13.107Z,0.00
2018-02-20T05:32:13.149Z,0.00
2018-02-20T05:33:13.088Z,0.00
2018-02-20T05:34:13.079Z,0.00
2018-02-20T05:35:13.067Z,0.00
2018-02-20T05:36:13.055Z,0.00
2018-02-20T05:37:13.088Z,0.00
2018-02-20T05:38:13.034Z,0.00
2018-02-20T05:39:13.026Z,0.00
2018-02-20T05:40:13.011Z,0.00
2018-02-20T05:41:13.000Z,0.00
2018-02-20T05:42:13.043Z,0.00
2018-02-20T05:43:12.979Z,0.00
2018-02-20T05:44:12.973Z,0.00
2018-02-20T05:45:12.955Z,0.00
2018-02-20T05:46:12.951Z,0.00
2018-02-20T05:47:12.935Z,0.00
2018-02-20T05:48:12.961Z,0.00
2018-02-20T05:49:12.914Z,0.00
2018-02-20T05:50:12.906Z,0.00
2018-02-20T05:51:12.891Z,0.00
2018-02-20T05:52:12.943Z,0.00
2018-02-20T05:53:12.872Z,0.00
2018-02-20T05:54:12.861Z,0.00
2018-02-20T05:55:12.850Z,0.00
2018-02-20T05:56:12.884Z,0.00
2018-02-20T05:57:12.886Z,0.00
2018-02-20T05:58:12.815Z,0.00
2018-02-20T05:59:12.806Z,0.00
2018-02-20T06:00:12.795Z,0.00
2018-02-20T06:01:12.879Z,0.00
2018-02-20T06:02:13.297Z,0.00
2018-02-20T06:03:12.763Z,0.00
2018-02-20T06:04:12.753Z,0.00
2018-02-20T06:05:12.740Z,0.00
2018-02-20T06:06:12.733Z,0.00
2018-02-20T06:07:12.780Z,5.63
2018-02-20T06:08:12.709Z,5.63
2018-02-20T06:09:12.695Z,5.63
2018-02-20T06:10:12.692Z,5.63
2018-02-20T06:11:12.678Z,5.63
2018-02-20T06:12:12.724Z,5.63
2018-02-20T06:13:12.658Z,5.63
2018-02-20T06:14:12.646Z,11.25
2018-02-20T06:15:12.635Z,11.25
2018-02-20T06:16:12.664Z,11.25
2018-02-20T06:17:12.615Z,11.25
2018-02-20T06:18:12.660Z,11.25
2018-02-20T06:19:12.591Z,11.25
2018-02-20T06:20:12.582Z,16.88
2018-02-20T06:21:12.613Z,16.88
2018-02-20T06:22:12.563Z,16.88
2018-02-20T06:23:12.553Z,16.88
2018-02-20T06:24:12.579Z,16.88
2018-02-20T06:25:12.527Z,22.50
2018-02-20T06:26:12.521Z,22.50
2018-02-20T06:27:12.509Z,22.50
2018-02-20T06:28:12.502Z,22.50
2018-02-20T06:29:12.542Z,28.13
2018-02-20T06:30:12.479Z,28.13
2018-02-20T06:31:12.568Z,28.13
2018-02-20T06:32:12.457Z,33.75
2018-02-20T06:33:12.447Z,33.75
2018-02-20T06:34:12.435Z,33.75
2018-02-20T06:35:12.470Z,33.75
2018-02-20T06:36:12.460Z,39.38
2018-02-20T06:37:12.404Z,39.38
2018-02-20T06:38:12.394Z,45.00
2018-02-20T06:39:12.384Z,45.00
2018-02-20T06:40:12.416Z,50.63
2018-02-20T06:41:12.364Z,50.63
2018-02-20T06:42:12.357Z,56.25
2018-02-20T06:43:12.342Z,56.25
2018-02-20T06:44:12.334Z,61.88
2018-02-20T06:45:12.365Z,61.88
2018-02-20T06:46:12.315Z,67.50
2018-02-20T06:47:12.303Z,67.50
2018-02-20T06:48:12.295Z,73.13
2018-02-20T06:49:12.280Z,78.75
2018-02-20T06:50:12.333Z,78.75
2018-02-20T06:51:12.264Z,84.38
2018-02-20T06:52:12.254Z,95.63
2018-02-20T06:53:12.247Z,101.25
2018-02-20T06:54:12.237Z,106.88
2018-02-20T06:55:12.226Z,112.50
2018-02-20T06:56:12.276Z,112.50
2018-02-20T06:57:12.208Z,118.13
2018-02-20T06:58:12.199Z,123.75
2018-02-20T06:59:12.187Z,129.38
2018-02-20T07:00:12.178Z,135.00
2018-02-20T07:01:12.228Z,135.00
2018-02-20T07:02:12.160Z,140.63
2018-02-20T07:03:12.151Z,140.63
2018-02-20T07:04:12.139Z,140.63
2018-02-20T07:05:12.134Z,146.25
2018-02-20T07:06:12.182Z,151.88
2018-02-20T07:07:12.115Z,157.50
2018-02-20T07:08:12.168Z,163.13
2018-02-20T07:09:12.095Z,168.75
2018-02-20T07:10:12.087Z,168.75
2018-02-20T07:11:12.117Z,168.75
2018-02-20T07:12:12.105Z,174.38
2018-02-20T07:13:12.060Z,174.38
2018-02-20T07:14:12.054Z,180.00
2018-02-20T07:15:12.046Z,180.00
2018-02-20T07:16:12.034Z,174.38
2018-02-20T07:17:12.069Z,174.38
2018-02-20T07:18:12.021Z,174.38
2018-02-20T07:19:12.008Z,180.00
2018-02-20T07:20:12.004Z,185.63
2018-02-20T07:21:12.041Z,185.63
2018-02-20T07:22:12.020Z,191.25
2018-02-20T07:23:11.983Z,191.25
2018-02-20T07:24:11.969Z,191.25
2018-02-20T07:25:11.961Z,191.25
2018-02-20T07:26:11.992Z,196.88
2018-02-20T07:27:11.940Z,202.50
2018-02-20T07:28:11.936Z,208.13
2018-02-20T07:29:11.930Z,219.38
2018-02-20T07:30:11.920Z,225.00
2018-02-20T07:31:11.970Z,230.63
2018-02-20T07:32:11.905Z,230.63
2018-02-20T07:33:11.917Z,230.63
2018-02-20T07:34:11.888Z,225.00
2018-02-20T07:35:11.921Z,219.38
2018-02-20T07:36:11.914Z,219.38
2018-02-20T07:37:11.869Z,219.38
2018-02-20T07:38:11.858Z,219.38
2018-02-20T07:39:11.852Z,225.00
2018-02-20T07:40:11.846Z,225.00
2018-02-20T07:41:11.876Z,225.00
2018-02-20T07:42:11.836Z,219.38
2018-02-20T07:43:11.822Z,213.75
2018-02-20T07:44:11.814Z,213.75
2018-02-20T07:45:11.809Z,213.75
2018-02-20T07:46:11.840Z,213.75
2018-02-20T07:47:11.792Z,213.75
2018-02-20T07:48:11.785Z,208.13
2018-02-20T07:49:11.776Z,208.13
2018-02-20T07:50:11.829Z,208.13
2018-02-20T07:51:12.316Z,213.75
2018-02-20T07:52:11.757Z,219.38
2018-02-20T07:53:11.754Z,230.63
2018-02-20T07:54:11.741Z,241.88
2018-02-20T07:55:11.733Z,241.88
2018-02-20T07:56:11.764Z,241.88
2018-02-20T07:57:11.719Z,241.88
2018-02-20T07:58:11.714Z,247.50
2018-02-20T07:59:11.708Z,253.13
2018-02-20T08:00:11.704Z,253.13
2018-02-20T08:01:11.839Z,258.75
2018-02-20T08:02:11.687Z,270.00
2018-02-20T08:03:11.685Z,264.38
2018-02-20T08:04:11.673Z,258.75
2018-02-20T08:05:11.706Z,247.50
2018-02-20T08:06:11.661Z,241.88
2018-02-20T08:07:11.691Z,253.13
2018-02-20T08:08:11.646Z,275.63
2018-02-20T08:09:11.637Z,286.88
2018-02-20T08:10:11.633Z,281.25
2018-02-20T08:11:11.627Z,270.00
2018-02-20T08:12:11.676Z,253.13
2018-02-20T08:13:11.613Z,253.13
2018-02-20T08:14:12.350Z,258.75
2018-02-20T08:15:11.635Z,275.63
2018-02-20T08:16:11.590Z,292.50
2018-02-20T08:17:11.586Z,309.38
2018-02-20T08:18:11.619Z,315.00
2018-02-20T08:19:12.512Z,309.38
2018-02-20T08:20:11.564Z,298.13
2018-02-20T08:21:11.559Z,286.88
2018-02-20T08:22:11.592Z,286.88
2018-02-20T08:23:11.935Z,292.50
2018-02-20T08:24:11.561Z,303.75
2018-02-20T08:25:11.533Z,326.25
2018-02-20T08:26:11.531Z,348.75
2018-02-20T08:27:11.553Z,360.00
2018-02-20T08:28:11.513Z,354.38
2018-02-20T08:29:11.511Z,348.75
2018-02-20T08:30:11.497Z,360.00
2018-02-20T08:31:11.493Z,371.25
2018-02-20T08:32:11.525Z,354.38
2018-02-20T08:33:11.479Z,326.25
2018-02-20T08:34:11.471Z,309.38
2018-02-20T08:35:11.464Z,303.75
2018-02-20T08:36:11.894Z,315.00
2018-02-20T08:37:11.494Z,326.25
2018-02-20T08:38:11.447Z,331.88
2018-02-20T08:39:11.445Z,331.88
2018-02-20T08:40:12.110Z,337.50
2018-02-20T08:41:11.432Z,337.50
2018-02-20T08:42:11.466Z,331.88
2018-02-20T08:43:11.416Z,331.88
2018-02-20T08:44:11.810Z,326.25
2018-02-20T08:45:11.405Z,315.00
2018-02-20T08:46:11.397Z,298.13
2018-02-20T08:47:11.448Z,303.75
2018-02-20T08:48:11.394Z,315.00
2018-02-20T08:49:11.380Z,309.38
2018-02-20T08:50:11.422Z,303.75
2018-02-20T08:51:11.366Z,309.38
2018-02-20T08:52:11.362Z,309.38
2018-02-20T08:53:11.389Z,309.38
2018-02-20T08:54:11.348Z,309.38
2018-02-20T08:55:11.343Z,309.38
2018-02-20T08:56:11.343Z,309.38
2018-02-20T08:57:11.367Z,309.38
2018-02-20T08:58:11.327Z,303.75
2018-02-20T08:59:11.317Z,303.75
2018-02-20T09:00:11.340Z,309.38
2018-02-20T09:01:11.303Z,315.00
2018-02-20T09:02:11.360Z,331.88
2018-02-20T09:03:11.293Z,360.00
2018-02-20T09:04:11.292Z,382.50
2018-02-20T09:05:11.333Z,405.00
2018-02-20T09:06:11.275Z,410.63
2018-02-20T09:07:11.322Z,410.63
2018-02-20T09:08:11.303Z,405.00
2018-02-20T09:09:11.258Z,399.38
2018-02-20T09:10:11.253Z,405.00
2018-02-20T09:11:11.248Z,399.38
2018-02-20T09:12:11.240Z,393.75
2018-02-20T09:13:11.337Z,382.50
2018-02-20T09:14:11.228Z,360.00
2018-02-20T09:15:11.219Z,331.88
2018-02-20T09:16:11.273Z,315.00
2018-02-20T09:17:11.211Z,309.38
2018-02-20T09:18:11.203Z,309.38
2018-02-20T09:19:11.199Z,309.38
2018-02-20T09:20:11.192Z,320.63
2018-02-20T09:21:11.243Z,337.50
2018-02-20T09:22:11.180Z,354.38
2018-02-20T09:23:11.175Z,371.25
2018-02-20T09:24:11.167Z,376.88
2018-02-20T09:25:11.244Z,382.50
2018-02-20T09:26:11.200Z,405.00
2018-02-20T09:27:11.150Z,410.63
2018-02-20T09:28:11.202Z,421.88
2018-02-20T09:29:11.140Z,438.75
2018-02-20T09:30:11.135Z,438.75
2018-02-20T09:31:11.165Z,421.88
2018-02-20T09:32:11.123Z,410.63
2018-02-20T09:33:11.157Z,410.63
2018-02-20T09:34:11.111Z,416.25
2018-02-20T09:35:11.105Z,433.13
2018-02-20T09:36:11.097Z,444.38
2018-02-20T09:37:11.094Z,461.25
2018-02-20T09:38:11.128Z,466.88
2018-02-20T09:39:11.080Z,450.00
2018-02-20T09:40:11.076Z,427.50
2018-02-20T09:41:11.069Z,416.25
2018-02-20T09:42:11.067Z,421.88
2018-02-20T09:43:11.101Z,461.25
2018-02-20T09:44:11.652Z,511.88
2018-02-20T09:45:13.738Z,579.38
2018-02-20T09:46:11.042Z,624.38
2018-02-20T09:47:11.036Z,624.38
2018-02-20T09:48:11.088Z,613.13
2018-02-20T09:49:11.025Z,613.13
2018-02-20T09:50:17.575Z,596.25
2018-02-20T09:51:11.017Z,551.25
2018-02-20T09:52:11.008Z,495.00
2018-02-20T09:53:11.004Z,472.50
2018-02-20T09:54:10.998Z,444.38
2018-02-20T09:55:11.036Z,427.50
2018-02-20T09:56:10.989Z,410.63
2018-02-20T09:57:10.984Z,416.25
2018-02-20T09:58:10.979Z,444.38
2018-02-20T09:59:11.012Z,461.25
2018-02-20T10:00:10.967Z,472.50
2018-02-20T10:01:10.960Z,489.38
2018-02-20T10:02:10.956Z,511.88
2018-02-20T10:03:10.892Z,523.13
2018-02-20T10:04:11.016Z,523.13
2018-02-20T10:05:10.961Z,517.50
2018-02-20T10:06:10.935Z,506.25
2018-02-20T10:07:10.933Z,478.13
2018-02-20T10:08:10.925Z,472.50
2018-02-20T10:09:10.918Z,478.13
2018-02-20T10:10:10.955Z,489.38
2018-02-20T10:11:10.907Z,483.75
2018-02-20T10:12:10.903Z,472.50
2018-02-20T10:13:10.900Z,472.50
2018-02-20T10:14:10.897Z,478.13
2018-02-20T10:15:10.947Z,483.75
2018-02-20T10:16:10.886Z,483.75
2018-02-20T10:17:10.884Z,489.38
2018-02-20T10:18:10.874Z,500.63
2018-02-20T10:19:10.871Z,517.50
2018-02-20T10:20:10.907Z,528.75
2018-02-20T10:21:10.913Z,534.38
2018-02-20T10:22:10.909Z,540.00
2018-02-20T10:23:11.002Z,540.00
2018-02-20T10:24:10.883Z,540.00
2018-02-20T10:25:10.874Z,540.00
2018-02-20T10:26:10.879Z,545.63
2018-02-20T10:27:10.834Z,556.88
2018-02-20T10:28:10.829Z,568.13
2018-02-20T10:29:10.824Z,585.00
2018-02-20T10:30:10.818Z,601.88
2018-02-20T10:31:10.863Z,613.13
2018-02-20T10:32:10.865Z,641.25
2018-02-20T10:33:10.828Z,652.50
2018-02-20T10:34:10.810Z,641.25
2018-02-20T10:35:10.800Z,624.38
2018-02-20T10:36:10.830Z,613.13
2018-02-20T10:37:10.789Z,607.50
2018-02-20T10:38:10.784Z,618.75
2018-02-20T10:41:04.477Z,646.88
2018-02-20T10:41:43.456Z,658.13
2018-02-20T10:42:43.414Z,646.88
2018-02-20T10:43:43.415Z,630.00
2018-02-20T10:44:43.405Z,613.13
2018-02-20T10:45:43.403Z,596.25
2018-02-20T10:46:43.432Z,596.25
2018-02-20T10:47:43.392Z,596.25
2018-02-20T10:48:43.388Z,585.00
2018-02-20T10:49:43.388Z,562.50
2018-02-20T10:50:43.377Z,545.63
2018-02-20T10:51:43.414Z,540.00
2018-02-20T10:52:43.374Z,534.38
2018-02-20T10:53:43.367Z,534.38
2018-02-20T10:54:43.362Z,517.50
2018-02-20T10:55:43.359Z,517.50
2018-02-20T10:56:43.397Z,511.88
2018-02-20T10:57:43.346Z,500.63
2018-02-20T10:58:43.346Z,500.63
2018-02-20T10:59:43.341Z,500.63
2018-02-20T11:00:43.451Z,500.63
2018-02-20T11:01:43.394Z,517.50
2018-02-20T11:02:43.329Z,528.75
2018-02-20T11:03:43.325Z,540.00
2018-02-20T11:04:43.327Z,534.38
2018-02-20T11:05:43.318Z,528.75
2018-02-20T11:06:43.353Z,528.75
2018-02-20T11:07:43.313Z,528.75
2018-02-20T11:08:43.310Z,528.75
2018-02-20T11:09:43.941Z,523.13
2018-02-20T11:10:43.300Z,523.13
2018-02-20T11:11:43.336Z,517.50
2018-02-20T11:12:43.288Z,506.25
2018-02-20T11:13:43.285Z,506.25
2018-02-20T11:14:43.285Z,500.63
2018-02-20T11:15:43.283Z,506.25
2018-02-20T11:16:44.389Z,511.88
2018-02-20T11:17:43.270Z,511.88
2018-02-20T11:18:43.268Z,511.88
2018-02-20T11:19:43.262Z,517.50
2018-02-20T11:20:43.262Z,517.50
2018-02-20T11:21:43.311Z,517.50
2018-02-20T11:22:43.251Z,517.50
2018-02-20T11:23:43.287Z,506.25
2018-02-20T11:24:43.247Z,495.00
2018-02-20T11:25:43.238Z,478.13
2018-02-20T11:26:43.272Z,466.88
2018-02-20T11:27:43.228Z,466.88
2018-02-20T11:28:43.225Z,472.50
2018-02-20T11:29:43.235Z,472.50
2018-02-20T11:30:43.218Z,455.63
2018-02-20T11:31:43.276Z,444.38
2018-02-20T11:32:43.215Z,427.50
2018-02-20T11:33:43.204Z,416.25
2018-02-20T11:34:43.247Z,416.25
2018-02-20T11:35:43.197Z,416.25
2018-02-20T11:36:43.249Z,416.25
2018-02-20T11:37:43.190Z,416.25
2018-02-20T11:38:43.218Z,405.00
2018-02-20T11:39:43.177Z,388.13
2018-02-20T11:40:43.176Z,371.25
2018-02-20T11:41:43.209Z,354.38
2018-02-20T11:42:43.165Z,348.75
2018-02-20T11:43:43.165Z,343.13
2018-02-20T11:44:43.155Z,337.50
2018-02-20T11:45:43.155Z,337.50
2018-02-20T11:46:43.182Z,343.13
2018-02-20T11:47:43.141Z,343.13
2018-02-20T11:48:43.137Z,348.75
2018-02-20T11:49:43.133Z,348.75
2018-02-20T11:50:43.132Z,343.13
2018-02-20T11:51:43.164Z,337.50
2018-02-20T11:52:43.118Z,331.88
2018-02-20T11:53:43.113Z,331.88
2018-02-20T11:54:43.106Z,337.50
2018-02-20T11:55:43.104Z,348.75
2018-02-20T11:56:43.139Z,348.75
2018-02-20T11:57:43.099Z,348.75
2018-02-20T11:58:43.089Z,343.13
2018-02-20T11:59:43.088Z,343.13
2018-02-20T12:00:43.080Z,348.75
2018-02-20T12:01:43.135Z,348.75
2018-02-20T12:02:43.072Z,354.38
2018-02-20T12:03:43.104Z,354.38
2018-02-20T12:04:43.065Z,348.75
2018-02-20T12:05:43.056Z,348.75
2018-02-20T12:06:43.110Z,343.13
2018-02-20T12:07:43.045Z,348.75
2018-02-20T12:08:43.081Z,354.38
2018-02-20T12:09:43.034Z,360.00
2018-02-20T12:10:43.073Z,371.25
2018-02-20T12:11:43.029Z,388.13
2018-02-20T12:12:43.061Z,405.00
2018-02-20T12:13:43.032Z,416.25
2018-02-20T12:14:43.020Z,421.88
2018-02-20T12:15:43.007Z,427.50
2018-02-20T12:16:43.004Z,433.13
2018-02-20T12:17:43.042Z,438.75
2018-02-20T12:18:42.993Z,444.38
2018-02-20T12:19:42.988Z,450.00
2018-02-20T12:20:42.983Z,466.88
2018-02-20T12:21:42.979Z,461.25
2018-02-20T12:22:43.011Z,466.88
2018-02-20T12:23:42.966Z,466.88
2018-02-20T12:24:42.965Z,466.88
2018-02-20T12:25:42.959Z,472.50
2018-02-20T12:26:42.954Z,472.50
2018-02-20T12:27:42.988Z,478.13
2018-02-20T12:28:42.994Z,478.13
2018-02-20T12:29:42.940Z,472.50
2018-02-20T12:30:42.933Z,466.88
2018-02-20T12:31:42.931Z,461.25
2018-02-20T12:32:42.984Z,461.25
2018-02-20T12:33:43.011Z,466.88
2018-02-20T12:34:42.916Z,472.50
2018-02-20T12:35:42.912Z,466.88
2018-02-20T12:36:42.908Z,466.88
2018-02-20T12:37:42.944Z,466.88
2018-02-20T12:38:42.951Z,461.25
2018-02-20T12:39:42.896Z,455.63
2018-02-20T12:40:42.892Z,444.38
2018-02-20T12:41:42.887Z,433.13
2018-02-20T12:42:42.918Z,421.88
2018-02-20T12:43:42.880Z,421.88
2018-02-20T12:44:42.922Z,410.63
2018-02-20T12:45:42.865Z,405.00
2018-02-20T12:46:42.863Z,399.38
2018-02-20T12:47:42.860Z,399.38
2018-02-20T12:48:42.858Z,399.38
2018-02-20T12:49:42.909Z,399.38
2018-02-20T12:50:42.846Z,393.75
2018-02-20T12:51:42.842Z,388.13
2018-02-20T12:52:42.875Z,382.50
2018-02-20T12:53:42.836Z,376.88
2018-02-20T12:54:42.885Z,376.88